KLM565 UKLL-LZIB
Flight info
| Callsign | KLM565 |
|---|---|
| Flight time | 0h 54m |
| Altitude | 30000 |
| Route | KOKUP Q560 VI P27 MALBE/N0439F300 A42 NIT |
| Aircraft | B738/M-SDE2E3FGHIRWXY/LB1 |
Departure
| Time | 2026-05-05 14:56 |
|---|---|
| Airport | Lviv International Airport (UKLL) |
Arrival
| Time | 2026-05-05 15:50 |
|---|---|
| Airport | M. R. Štefánik Airport (LZIB) |
| Time | Latitude | Longitude | Altitude | Speed | Heading |
|---|---|---|---|---|---|
| 2026-05-05 14:26 | 49.81305 | 23.95904 | 1079 ft | 0 kts | 45° |
| 2026-05-05 14:50 | 49.81305 | 23.95902 | 1079 ft | 3 kts | 45° |
| 2026-05-05 14:50 | 49.81280 | 23.95865 | 1079 ft | 5 kts | 46° |
| 2026-05-05 14:50 | 49.81261 | 23.95827 | 1079 ft | 5 kts | 63° |
| 2026-05-05 14:51 | 49.81253 | 23.95785 | 1079 ft | 5 kts | 94° |
| 2026-05-05 14:51 | 49.81259 | 23.95752 | 1079 ft | 0 kts | 132° |
| 2026-05-05 14:52 | 49.81231 | 23.95797 | 1079 ft | 12 kts | 135° |
| 2026-05-05 14:53 | 49.81167 | 23.95894 | 1079 ft | 11 kts | 135° |
| 2026-05-05 14:53 | 49.81115 | 23.95974 | 1079 ft | 12 kts | 135° |
| 2026-05-05 14:53 | 49.81031 | 23.96030 | 1079 ft | 15 kts | 177° |
| 2026-05-05 14:53 | 49.80910 | 23.96034 | 1079 ft | 19 kts | 177° |
| 2026-05-05 14:54 | 49.80804 | 23.96109 | 1079 ft | 15 kts | 139° |
| 2026-05-05 14:54 | 49.80722 | 23.96227 | 1079 ft | 18 kts | 136° |
| 2026-05-05 14:54 | 49.80629 | 23.96372 | 1079 ft | 20 kts | 127° |
| 2026-05-05 14:54 | 49.80594 | 23.96589 | 1079 ft | 22 kts | 94° |
| 2026-05-05 14:55 | 49.80541 | 23.96752 | 1079 ft | 14 kts | 164° |
| 2026-05-05 14:55 | 49.80465 | 23.96708 | 1079 ft | 13 kts | 229° |
| 2026-05-05 14:55 | 49.80471 | 23.96598 | 1079 ft | 14 kts | 317° |
| 2026-05-05 14:55 | 49.80611 | 23.96389 | 1079 ft | 56 kts | 314° |
| 2026-05-05 14:56 | 49.81093 | 23.95652 | 1079 ft | 136 kts | 315° |
| 2026-05-05 14:56 | 49.81907 | 23.94428 | 1355 ft | 177 kts | 314° |
| 2026-05-05 14:56 | 49.82821 | 23.93070 | 2221 ft | 182 kts | 313° |
| 2026-05-05 14:56 | 49.83717 | 23.91781 | 3252 ft | 176 kts | 313° |
| 2026-05-05 14:57 | 49.84639 | 23.90406 | 3819 ft | 196 kts | 311° |
| 2026-05-05 14:57 | 49.85678 | 23.88830 | 4203 ft | 222 kts | 312° |
| 2026-05-05 14:57 | 49.86851 | 23.87061 | 4516 ft | 250 kts | 313° |
| 2026-05-05 14:57 | 49.88144 | 23.85113 | 5156 ft | 263 kts | 313° |
| 2026-05-05 14:58 | 49.89436 | 23.83153 | 6261 ft | 261 kts | 311° |
| 2026-05-05 14:58 | 49.90331 | 23.80770 | 7203 ft | 257 kts | 280° |
| 2026-05-05 14:58 | 49.90223 | 23.78032 | 8141 ft | 255 kts | 248° |
| 2026-05-05 14:58 | 49.89267 | 23.75720 | 9087 ft | 257 kts | 230° |
| 2026-05-05 14:59 | 49.88018 | 23.73708 | 9965 ft | 262 kts | 225° |
| 2026-05-05 14:59 | 49.86657 | 23.71810 | 10863 ft | 266 kts | 220° |
| 2026-05-05 14:59 | 49.85007 | 23.70513 | 11704 ft | 274 kts | 198° |
| 2026-05-05 14:59 | 49.83093 | 23.70085 | 12503 ft | 283 kts | 188° |
| 2026-05-05 15:00 | 49.81108 | 23.69858 | 13276 ft | 289 kts | 187° |
| 2026-05-05 15:00 | 49.79777 | 23.69720 | 13788 ft | 292 kts | 187° |
| 2026-05-05 15:00 | 49.77037 | 23.69517 | 14806 ft | 299 kts | 186° |
| 2026-05-05 15:00 | 49.74951 | 23.69273 | 15544 ft | 303 kts | 187° |
| 2026-05-05 15:01 | 49.72842 | 23.68957 | 16305 ft | 306 kts | 188° |
| 2026-05-05 15:01 | 49.70712 | 23.68617 | 17050 ft | 310 kts | 188° |
| 2026-05-05 15:01 | 49.68529 | 23.68255 | 17781 ft | 313 kts | 188° |
| 2026-05-05 15:01 | 49.66362 | 23.67887 | 18493 ft | 317 kts | 189° |
| 2026-05-05 15:02 | 49.64158 | 23.67506 | 19186 ft | 320 kts | 189° |
| 2026-05-05 15:02 | 49.61931 | 23.67117 | 19867 ft | 324 kts | 189° |
| 2026-05-05 15:02 | 49.59686 | 23.66721 | 20528 ft | 328 kts | 189° |
| 2026-05-05 15:02 | 49.57412 | 23.66318 | 21177 ft | 331 kts | 188° |
| 2026-05-05 15:03 | 49.55861 | 23.66043 | 21605 ft | 334 kts | 188° |
| 2026-05-05 15:03 | 49.53593 | 23.65312 | 22200 ft | 336 kts | 199° |
| 2026-05-05 15:03 | 49.50829 | 23.63267 | 22996 ft | 338 kts | 213° |
| 2026-05-05 15:03 | 49.48800 | 23.61263 | 23586 ft | 341 kts | 215° |
| 2026-05-05 15:04 | 49.47465 | 23.59873 | 23971 ft | 344 kts | 215° |
| 2026-05-05 15:04 | 49.45488 | 23.57801 | 24532 ft | 347 kts | 215° |
| 2026-05-05 15:04 | 49.43489 | 23.55707 | 25074 ft | 351 kts | 215° |
| 2026-05-05 15:04 | 49.41467 | 23.53590 | 25611 ft | 354 kts | 215° |
| 2026-05-05 15:05 | 49.37356 | 23.49291 | 26588 ft | 362 kts | 215° |
| 2026-05-05 15:05 | 49.35265 | 23.47107 | 27017 ft | 368 kts | 215° |
| 2026-05-05 15:05 | 49.33129 | 23.44848 | 27225 ft | 380 kts | 216° |
| 2026-05-05 15:06 | 49.30896 | 23.42488 | 27370 ft | 393 kts | 216° |
| 2026-05-05 15:06 | 49.28611 | 23.40087 | 27519 ft | 405 kts | 215° |
| 2026-05-05 15:06 | 49.26255 | 23.37624 | 27647 ft | 417 kts | 215° |
| 2026-05-05 15:06 | 49.23827 | 23.35094 | 27770 ft | 428 kts | 215° |
| 2026-05-05 15:07 | 49.21343 | 23.32513 | 27886 ft | 438 kts | 215° |
| 2026-05-05 15:07 | 49.18804 | 23.29880 | 28192 ft | 443 kts | 215° |
| 2026-05-05 15:07 | 49.16268 | 23.27253 | 28849 ft | 438 kts | 215° |
| 2026-05-05 15:07 | 49.13753 | 23.24652 | 29345 ft | 438 kts | 215° |
| 2026-05-05 15:08 | 49.11214 | 23.22028 | 29612 ft | 443 kts | 215° |
| 2026-05-05 15:08 | 49.08619 | 23.19349 | 29886 ft | 448 kts | 214° |
| 2026-05-05 15:08 | 49.06019 | 23.16657 | 29896 ft | 457 kts | 214° |
| 2026-05-05 15:09 | 49.00705 | 23.11182 | 29907 ft | 465 kts | 214° |
| 2026-05-05 15:09 | 48.95754 | 23.04995 | 29905 ft | 463 kts | 231° |
| 2026-05-05 15:09 | 48.94028 | 23.00881 | 29907 ft | 461 kts | 245° |
| 2026-05-05 15:10 | 48.92847 | 22.96365 | 29908 ft | 460 kts | 252° |
| 2026-05-05 15:10 | 48.91082 | 22.87057 | 29904 ft | 458 kts | 256° |
| 2026-05-05 15:11 | 48.89496 | 22.77706 | 29903 ft | 457 kts | 256° |
| 2026-05-05 15:11 | 48.87868 | 22.68291 | 29920 ft | 462 kts | 256° |
| 2026-05-05 15:12 | 48.86199 | 22.58823 | 29933 ft | 465 kts | 255° |
| 2026-05-05 15:12 | 48.84517 | 22.49367 | 29945 ft | 465 kts | 255° |
| 2026-05-05 15:13 | 48.82827 | 22.39895 | 29937 ft | 460 kts | 254° |
| 2026-05-05 15:13 | 48.81433 | 22.30495 | 29936 ft | 454 kts | 259° |
| 2026-05-05 15:14 | 48.80363 | 22.21165 | 29935 ft | 447 kts | 260° |
| 2026-05-05 15:14 | 48.79313 | 22.11873 | 29935 ft | 448 kts | 261° |
| 2026-05-05 15:15 | 48.78192 | 22.02546 | 29935 ft | 451 kts | 260° |
| 2026-05-05 15:15 | 48.77043 | 21.93251 | 29935 ft | 448 kts | 259° |
| 2026-05-05 15:16 | 48.75879 | 21.83963 | 29935 ft | 448 kts | 259° |
| 2026-05-05 15:16 | 48.74708 | 21.74648 | 29935 ft | 448 kts | 259° |
| 2026-05-05 15:17 | 48.73553 | 21.65313 | 29935 ft | 448 kts | 259° |
| 2026-05-05 15:17 | 48.72432 | 21.56469 | 29935 ft | 448 kts | 259° |
| 2026-05-05 15:18 | 48.71234 | 21.47209 | 29935 ft | 449 kts | 258° |
| 2026-05-05 15:18 | 48.70015 | 21.37875 | 29935 ft | 449 kts | 258° |
| 2026-05-05 15:19 | 48.68803 | 21.28632 | 29935 ft | 449 kts | 258° |
| 2026-05-05 15:19 | 48.67725 | 21.19332 | 29935 ft | 449 kts | 262° |
| 2026-05-05 15:20 | 48.66884 | 21.09984 | 29935 ft | 449 kts | 262° |
| 2026-05-05 15:20 | 48.65946 | 21.00592 | 29935 ft | 449 kts | 261° |
| 2026-05-05 15:21 | 48.64993 | 20.91262 | 29935 ft | 449 kts | 261° |
| 2026-05-05 15:21 | 48.64035 | 20.81953 | 29935 ft | 449 kts | 261° |
| 2026-05-05 15:22 | 48.63086 | 20.72635 | 29935 ft | 449 kts | 262° |
| 2026-05-05 15:22 | 48.62167 | 20.63243 | 29935 ft | 449 kts | 261° |
| 2026-05-05 15:23 | 48.61206 | 20.53954 | 29935 ft | 448 kts | 261° |
| 2026-05-05 15:23 | 48.60223 | 20.44665 | 29935 ft | 448 kts | 261° |
| 2026-05-05 15:24 | 48.59224 | 20.35325 | 29935 ft | 448 kts | 261° |
| 2026-05-05 15:24 | 48.58229 | 20.26046 | 29937 ft | 449 kts | 261° |
| 2026-05-05 15:25 | 48.57221 | 20.16798 | 29932 ft | 446 kts | 260° |
| 2026-05-05 15:25 | 48.56208 | 20.07610 | 29924 ft | 443 kts | 260° |
| 2026-05-05 15:26 | 48.55234 | 19.98420 | 29923 ft | 443 kts | 260° |
| 2026-05-05 15:26 | 48.54748 | 19.93900 | 29921 ft | 431 kts | 260° |
| 2026-05-05 15:26 | 48.54262 | 19.89483 | 29920 ft | 423 kts | 260° |
| 2026-05-05 15:27 | 48.53286 | 19.80770 | 29899 ft | 416 kts | 259° |
| 2026-05-05 15:27 | 48.52802 | 19.76503 | 29615 ft | 409 kts | 259° |
| 2026-05-05 15:27 | 48.52328 | 19.72336 | 29244 ft | 403 kts | 259° |
| 2026-05-05 15:27 | 48.51855 | 19.68186 | 28780 ft | 400 kts | 259° |
| 2026-05-05 15:28 | 48.51385 | 19.64072 | 28318 ft | 397 kts | 259° |
| 2026-05-05 15:28 | 48.50920 | 19.59997 | 27860 ft | 395 kts | 259° |
| 2026-05-05 15:28 | 48.50460 | 19.55935 | 27403 ft | 392 kts | 259° |
| 2026-05-05 15:28 | 48.50015 | 19.51898 | 26947 ft | 389 kts | 259° |
| 2026-05-05 15:29 | 48.49569 | 19.47936 | 26498 ft | 387 kts | 259° |
| 2026-05-05 15:29 | 48.49106 | 19.43899 | 26041 ft | 384 kts | 259° |
| 2026-05-05 15:29 | 48.48645 | 19.39919 | 25589 ft | 382 kts | 259° |
| 2026-05-05 15:29 | 48.48187 | 19.36000 | 25144 ft | 379 kts | 259° |
| 2026-05-05 15:30 | 48.47729 | 19.32104 | 24700 ft | 377 kts | 258° |
| 2026-05-05 15:30 | 48.47273 | 19.28247 | 24259 ft | 374 kts | 258° |
| 2026-05-05 15:30 | 48.46818 | 19.24397 | 23819 ft | 372 kts | 258° |
| 2026-05-05 15:30 | 48.46366 | 19.20585 | 23382 ft | 369 kts | 258° |
| 2026-05-05 15:31 | 48.45916 | 19.16795 | 22946 ft | 367 kts | 258° |
| 2026-05-05 15:31 | 48.45471 | 19.13046 | 22515 ft | 365 kts | 258° |
| 2026-05-05 15:31 | 48.44994 | 19.09289 | 22081 ft | 362 kts | 256° |
| 2026-05-05 15:31 | 48.44450 | 19.05601 | 21651 ft | 359 kts | 255° |
| 2026-05-05 15:32 | 48.43892 | 19.01957 | 21225 ft | 357 kts | 255° |
| 2026-05-05 15:32 | 48.43343 | 18.98339 | 20804 ft | 355 kts | 256° |
| 2026-05-05 15:32 | 48.42818 | 18.94728 | 20380 ft | 352 kts | 256° |
| 2026-05-05 15:32 | 48.42290 | 18.91138 | 19958 ft | 350 kts | 255° |
| 2026-05-05 15:33 | 48.41759 | 18.87580 | 19541 ft | 348 kts | 255° |
| 2026-05-05 15:33 | 48.41221 | 18.83997 | 19122 ft | 346 kts | 255° |
| 2026-05-05 15:33 | 48.40696 | 18.80523 | 18718 ft | 344 kts | 255° |
| 2026-05-05 15:33 | 48.40159 | 18.76991 | 18302 ft | 341 kts | 255° |
| 2026-05-05 15:34 | 48.39629 | 18.73521 | 17893 ft | 339 kts | 254° |
| 2026-05-05 15:34 | 48.39102 | 18.70075 | 17485 ft | 337 kts | 254° |
| 2026-05-05 15:34 | 48.38577 | 18.66655 | 17083 ft | 335 kts | 254° |
| 2026-05-05 15:34 | 48.38068 | 18.63249 | 16707 ft | 335 kts | 256° |
| 2026-05-05 15:35 | 48.37565 | 18.59834 | 16284 ft | 333 kts | 253° |
| 2026-05-05 15:35 | 48.36938 | 18.56485 | 16028 ft | 345 kts | 250° |
| 2026-05-05 15:35 | 48.36190 | 18.52907 | 15781 ft | 374 kts | 250° |
| 2026-05-05 15:35 | 48.35375 | 18.49080 | 15415 ft | 385 kts | 249° |
| 2026-05-05 15:36 | 48.34588 | 18.45337 | 15317 ft | 369 kts | 251° |
| 2026-05-05 15:36 | 48.34027 | 18.41631 | 15056 ft | 362 kts | 257° |
| 2026-05-05 15:36 | 48.33783 | 18.37845 | 14537 ft | 361 kts | 263° |
| 2026-05-05 15:36 | 48.33680 | 18.34056 | 13830 ft | 364 kts | 264° |
| 2026-05-05 15:37 | 48.33601 | 18.30254 | 13082 ft | 367 kts | 264° |
| 2026-05-05 15:37 | 48.33523 | 18.26423 | 12370 ft | 368 kts | 264° |
| 2026-05-05 15:37 | 48.33441 | 18.22564 | 11632 ft | 370 kts | 264° |
| 2026-05-05 15:37 | 48.33358 | 18.18711 | 10894 ft | 370 kts | 264° |
| 2026-05-05 15:38 | 48.33273 | 18.14890 | 10078 ft | 363 kts | 264° |
| 2026-05-05 15:38 | 48.33189 | 18.11163 | 9661 ft | 347 kts | 263° |
| 2026-05-05 15:38 | 48.33109 | 18.07656 | 9433 ft | 328 kts | 263° |
| 2026-05-05 15:38 | 48.33031 | 18.04327 | 9282 ft | 309 kts | 263° |
| 2026-05-05 15:39 | 48.32957 | 18.01157 | 9169 ft | 292 kts | 263° |
| 2026-05-05 15:39 | 48.32887 | 17.98196 | 9061 ft | 276 kts | 262° |
| 2026-05-05 15:39 | 48.32819 | 17.95371 | 8807 ft | 267 kts | 262° |
| 2026-05-05 15:39 | 48.32753 | 17.92607 | 8389 ft | 265 kts | 262° |
| 2026-05-05 15:40 | 48.32701 | 17.89844 | 7970 ft | 266 kts | 263° |
| 2026-05-05 15:40 | 48.32663 | 17.87084 | 7680 ft | 264 kts | 263° |
| 2026-05-05 15:40 | 48.32617 | 17.84347 | 7342 ft | 260 kts | 262° |
| 2026-05-05 15:40 | 48.32565 | 17.81639 | 6873 ft | 260 kts | 262° |
| 2026-05-05 15:41 | 48.32507 | 17.78929 | 6428 ft | 259 kts | 262° |
| 2026-05-05 15:41 | 48.32446 | 17.76247 | 6005 ft | 257 kts | 262° |
| 2026-05-05 15:41 | 48.32383 | 17.73577 | 5567 ft | 257 kts | 262° |
| 2026-05-05 15:41 | 48.32316 | 17.70894 | 5255 ft | 256 kts | 262° |
| 2026-05-05 15:42 | 48.32248 | 17.68205 | 4963 ft | 253 kts | 261° |
| 2026-05-05 15:42 | 48.32179 | 17.65591 | 4589 ft | 249 kts | 261° |
| 2026-05-05 15:42 | 48.32119 | 17.63291 | 4411 ft | 239 kts | 261° |
| 2026-05-05 15:42 | 48.32074 | 17.61620 | 4337 ft | 229 kts | 261° |
| 2026-05-05 15:43 | 48.31992 | 17.58582 | 4199 ft | 214 kts | 260° |
| 2026-05-05 15:43 | 48.31951 | 17.57094 | 4081 ft | 210 kts | 259° |
| 2026-05-05 15:43 | 48.31892 | 17.54924 | 3851 ft | 207 kts | 259° |
| 2026-05-05 15:43 | 48.31833 | 17.52800 | 3701 ft | 199 kts | 259° |
| 2026-05-05 15:44 | 48.31778 | 17.50789 | 3639 ft | 186 kts | 258° |
| 2026-05-05 15:44 | 48.31726 | 17.48905 | 3439 ft | 180 kts | 258° |
| 2026-05-05 15:44 | 48.31675 | 17.47020 | 3114 ft | 181 kts | 258° |
| 2026-05-05 15:44 | 48.31596 | 17.45299 | 2839 ft | 177 kts | 251° |
| 2026-05-05 15:45 | 48.31253 | 17.43584 | 2604 ft | 167 kts | 239° |
| 2026-05-05 15:45 | 48.30707 | 17.42086 | 2484 ft | 162 kts | 230° |
| 2026-05-05 15:45 | 48.30040 | 17.40744 | 2490 ft | 159 kts | 225° |
| 2026-05-05 15:45 | 48.29309 | 17.39474 | 2497 ft | 160 kts | 224° |
| 2026-05-05 15:46 | 48.28586 | 17.38195 | 2504 ft | 161 kts | 223° |
| 2026-05-05 15:46 | 48.27830 | 17.36952 | 2505 ft | 161 kts | 221° |
| 2026-05-05 15:46 | 48.27045 | 17.35760 | 2503 ft | 160 kts | 220° |
| 2026-05-05 15:46 | 48.26277 | 17.34631 | 2506 ft | 148 kts | 219° |
| 2026-05-05 15:47 | 48.25572 | 17.33605 | 2446 ft | 135 kts | 218° |
| 2026-05-05 15:47 | 48.24916 | 17.32656 | 2307 ft | 127 kts | 217° |
| 2026-05-05 15:47 | 48.24294 | 17.31759 | 2162 ft | 121 kts | 218° |
| 2026-05-05 15:47 | 48.23699 | 17.30902 | 1993 ft | 118 kts | 220° |
| 2026-05-05 15:48 | 48.23103 | 17.30044 | 1821 ft | 121 kts | 220° |
| 2026-05-05 15:48 | 48.22485 | 17.29154 | 1668 ft | 125 kts | 219° |
| 2026-05-05 15:48 | 48.21839 | 17.28224 | 1505 ft | 129 kts | 219° |
| 2026-05-05 15:48 | 48.21195 | 17.27299 | 1330 ft | 131 kts | 219° |
| 2026-05-05 15:49 | 48.20538 | 17.26355 | 1154 ft | 131 kts | 219° |
| 2026-05-05 15:49 | 48.19876 | 17.25403 | 977 ft | 131 kts | 219° |
| 2026-05-05 15:49 | 48.19220 | 17.24459 | 790 ft | 130 kts | 219° |
| 2026-05-05 15:49 | 48.18571 | 17.23521 | 623 ft | 130 kts | 219° |
| 2026-05-05 15:50 | 48.17926 | 17.22588 | 469 ft | 129 kts | 219° |
| 2026-05-05 15:50 | 48.17321 | 17.21726 | 444 ft | 96 kts | 220° |
| 2026-05-05 15:50 | 48.17007 | 17.21295 | 444 ft | 45 kts | 224° |
| 2026-05-05 15:50 | 48.16855 | 17.21072 | 444 ft | 25 kts | 223° |
| 2026-05-05 15:51 | 48.16743 | 17.20908 | 444 ft | 21 kts | 226° |
| 2026-05-05 15:51 | 48.16633 | 17.20748 | 444 ft | 20 kts | 222° |
| 2026-05-05 15:51 | 48.16572 | 17.20608 | 444 ft | 13 kts | 290° |
| 2026-05-05 15:51 | 48.16638 | 17.20485 | 444 ft | 19 kts | 313° |
| 2026-05-05 15:52 | 48.16734 | 17.20334 | 444 ft | 17 kts | 313° |
| 2026-05-05 15:52 | 48.16801 | 17.20228 | 444 ft | 11 kts | 314° |
| 2026-05-05 15:52 | 48.16849 | 17.20132 | 444 ft | 12 kts | 294° |
| 2026-05-05 15:52 | 48.16887 | 17.20062 | 444 ft | 1 kts | 314° |
| 2026-05-05 15:53 | 48.16887 | 17.20061 | 444 ft | 0 kts | 314° |